Terminal Aerodrome Forecast
Issued by NWS Wilmington, NC

Current Version | Previous Version | Graphics & Text | Print | Product List | Glossary Off
Versions: 1 2 3 4 5 6 7 8 9 10 11 12 13 14 15

413
FTUS42 KILM 271720
TAFILM
TAF
KILM 271720Z 2718/2818 12007KT P6SM SCT130
     FM280800 17005KT P6SM BKN130
     FM281300 17005KT P6SM BKN045
     FM281600 18009KT P6SM BKN060=

USA.gov is the U.S. government's official web portal to all federal, state and local government web resources and services.